sensor_id;sensor_type;location;lat;lon;timestamp;temperature;humidity
57576;DHT22;43412;-33.800;150.804;2023-04-01T00:00:56;25.40;95.20
57576;DHT22;43412;-33.800;150.804;2023-04-01T00:03:25;25.50;94.80
57576;DHT22;43412;-33.800;150.804;2023-04-01T00:05:54;25.60;94.90
57576;DHT22;43412;-33.800;150.804;2023-04-01T00:08:22;25.70;95.00
57576;DHT22;43412;-33.800;150.804;2023-04-01T00:10:50;25.70;94.60
57576;DHT22;43412;-33.800;150.804;2023-04-01T00:13:17;25.50;94.70
57576;DHT22;43412;-33.800;150.804;2023-04-01T00:15:45;25.20;95.00
57576;DHT22;43412;-33.800;150.804;2023-04-01T00:18:13;25.00;95.00
57576;DHT22;43412;-33.800;150.804;2023-04-01T00:20:47;24.80;95.80
57576;DHT22;43412;-33.800;150.804;2023-04-01T00:23:16;24.60;96.30
57576;DHT22;43412;-33.800;150.804;2023-04-01T00:25:44;24.50;96.20
57576;DHT22;43412;-33.800;150.804;2023-04-01T00:28:18;24.30;96.20
57576;DHT22;43412;-33.800;150.804;2023-04-01T00:30:46;24.20;96.60
57576;DHT22;43412;-33.800;150.804;2023-04-01T00:33:14;24.10;96.80
57576;DHT22;43412;-33.800;150.804;2023-04-01T00:35:43;24.00;97.20
57576;DHT22;43412;-33.800;150.804;2023-04-01T00:38:11;23.70;96.90
57576;DHT22;43412;-33.800;150.804;2023-04-01T00:40:41;23.70;97.70
57576;DHT22;43412;-33.800;150.804;2023-04-01T00:43:19;23.70;97.50
57576;DHT22;43412;-33.800;150.804;2023-04-01T00:45:50;23.70;97.40
57576;DHT22;43412;-33.800;150.804;2023-04-01T00:48:21;23.60;97.10
57576;DHT22;43412;-33.800;150.804;2023-04-01T00:53:36;23.50;97.10
57576;DHT22;43412;-33.800;150.804;2023-04-01T00:56:13;23.50;97.90
57576;DHT22;43412;-33.800;150.804;2023-04-01T00:58:48;23.40;97.90
57576;DHT22;43412;-33.800;150.804;2023-04-01T01:01:17;23.30;97.70
57576;DHT22;43412;-33.800;150.804;2023-04-01T01:03:44;23.30;98.10
57576;DHT22;43412;-33.800;150.804;2023-04-01T01:12:31;24.40;96.70
57576;DHT22;43412;-33.800;150.804;2023-04-01T01:15:25;24.10;97.00
57576;DHT22;43412;-33.800;150.804;2023-04-01T01:30:01;22.80;98.40
57576;DHT22;43412;-33.800;150.804;2023-04-01T01:35:36;22.30;99.00
57576;DHT22;43412;-33.800;150.804;2023-04-01T01:38:12;22.20;99.50
57576;DHT22;43412;-33.800;150.804;2023-04-01T01:40:43;22.20;99.80
57576;DHT22;43412;-33.800;150.804;2023-04-01T01:43:14;22.20;99.90
57576;DHT22;43412;-33.800;150.804;2023-04-01T01:45:48;22.20;99.80
57576;DHT22;43412;-33.800;150.804;2023-04-01T01:48:17;22.20;99.60
57576;DHT22;43412;-33.800;150.804;2023-04-01T01:50:46;22.20;99.90
57576;DHT22;43412;-33.800;150.804;2023-04-01T01:53:15;22.20;99.90
57576;DHT22;43412;-33.800;150.804;2023-04-01T01:55:46;22.20;99.90
57576;DHT22;43412;-33.800;150.804;2023-04-01T01:58:32;22.10;99.90
57576;DHT22;43412;-33.800;150.804;2023-04-01T02:01:13;22.10;99.90
57576;DHT22;43412;-33.800;150.804;2023-04-01T02:03:42;21.80;99.90
57576;DHT22;43412;-33.800;150.804;2023-04-01T02:06:15;21.60;99.90
57576;DHT22;43412;-33.800;150.804;2023-04-01T02:08:47;21.30;99.90
57576;DHT22;43412;-33.800;150.804;2023-04-01T02:11:21;21.20;99.90
57576;DHT22;43412;-33.800;150.804;2023-04-01T02:13:56;21.10;99.90
57576;DHT22;43412;-33.800;150.804;2023-04-01T02:16:36;21.10;99.90
57576;DHT22;43412;-33.800;150.804;2023-04-01T02:19:07;21.10;99.90
57576;DHT22;43412;-33.800;150.804;2023-04-01T02:21:37;21.10;99.90
57576;DHT22;43412;-33.800;150.804;2023-04-01T02:24:08;21.30;99.90
57576;DHT22;43412;-33.800;150.804;2023-04-01T02:26:37;21.50;99.90
57576;DHT22;43412;-33.800;150.804;2023-04-01T02:29:06;21.60;99.90
57576;DHT22;43412;-33.800;150.804;2023-04-01T02:31:35;21.70;99.90
57576;DHT22;43412;-33.800;150.804;2023-04-01T02:34:03;22.10;99.90
57576;DHT22;43412;-33.800;150.804;2023-04-01T02:36:32;22.40;99.90
57576;DHT22;43412;-33.800;150.804;2023-04-01T02:38:59;22.50;99.90
57576;DHT22;43412;-33.800;150.804;2023-04-01T02:41:29;22.60;99.90
57576;DHT22;43412;-33.800;150.804;2023-04-01T02:43:57;22.90;99.90
57576;DHT22;43412;-33.800;150.804;2023-04-01T02:46:25;23.10;99.90
57576;DHT22;43412;-33.800;150.804;2023-04-01T02:48:53;23.40;99.90
57576;DHT22;43412;-33.800;150.804;2023-04-01T02:51:20;23.50;99.90
57576;DHT22;43412;-33.800;150.804;2023-04-01T02:53:47;23.70;99.70
57576;DHT22;43412;-33.800;150.804;2023-04-01T02:56:15;23.80;99.10
57576;DHT22;43412;-33.800;150.804;2023-04-01T02:58:42;23.90;98.60
57576;DHT22;43412;-33.800;150.804;2023-04-01T03:01:09;23.70;98.90
57576;DHT22;43412;-33.800;150.804;2023-04-01T03:03:37;23.60;99.20
57576;DHT22;43412;-33.800;150.804;2023-04-01T03:06:12;23.50;98.90
57576;DHT22;43412;-33.800;150.804;2023-04-01T03:08:40;23.20;98.80
57576;DHT22;43412;-33.800;150.804;2023-04-01T03:11:08;22.90;99.40
57576;DHT22;43412;-33.800;150.804;2023-04-01T03:13:36;22.50;99.90
57576;DHT22;43412;-33.800;150.804;2023-04-01T03:16:04;22.30;99.90
57576;DHT22;43412;-33.800;150.804;2023-04-01T03:18:31;22.00;99.90
57576;DHT22;43412;-33.800;150.804;2023-04-01T03:21:16;21.80;99.90
57576;DHT22;43412;-33.800;150.804;2023-04-01T03:23:44;21.60;99.90
57576;DHT22;43412;-33.800;150.804;2023-04-01T03:26:12;21.20;99.90
57576;DHT22;43412;-33.800;150.804;2023-04-01T03:28:40;21.00;99.90
57576;DHT22;43412;-33.800;150.804;2023-04-01T03:31:10;20.90;99.90
57576;DHT22;43412;-33.800;150.804;2023-04-01T03:33:38;20.80;99.90
57576;DHT22;43412;-33.800;150.804;2023-04-01T03:36:06;20.70;99.90
57576;DHT22;43412;-33.800;150.804;2023-04-01T03:38:36;20.60;99.90
57576;DHT22;43412;-33.800;150.804;2023-04-01T03:41:04;20.40;99.90
57576;DHT22;43412;-33.800;150.804;2023-04-01T03:43:31;20.40;99.90
57576;DHT22;43412;-33.800;150.804;2023-04-01T03:45:59;20.30;99.90
57576;DHT22;43412;-33.800;150.804;2023-04-01T03:48:26;20.30;99.90
57576;DHT22;43412;-33.800;150.804;2023-04-01T03:50:53;20.20;99.90
57576;DHT22;43412;-33.800;150.804;2023-04-01T03:53:21;20.20;99.90
57576;DHT22;43412;-33.800;150.804;2023-04-01T03:55:48;20.20;99.90
57576;DHT22;43412;-33.800;150.804;2023-04-01T03:58:17;20.30;99.90
57576;DHT22;43412;-33.800;150.804;2023-04-01T04:00:45;20.30;99.90
57576;DHT22;43412;-33.800;150.804;2023-04-01T04:03:12;20.20;99.90
57576;DHT22;43412;-33.800;150.804;2023-04-01T04:05:47;20.20;99.90
57576;DHT22;43412;-33.800;150.804;2023-04-01T04:08:14;20.10;99.90
57576;DHT22;43412;-33.800;150.804;2023-04-01T04:10:42;20.10;99.90
57576;DHT22;43412;-33.800;150.804;2023-04-01T04:13:10;20.10;99.90
57576;DHT22;43412;-33.800;150.804;2023-04-01T04:15:38;20.10;99.90
57576;DHT22;43412;-33.800;150.804;2023-04-01T04:18:06;20.10;99.90
57576;DHT22;43412;-33.800;150.804;2023-04-01T04:20:33;20.30;99.90
57576;DHT22;43412;-33.800;150.804;2023-04-01T04:23:01;20.40;99.90
57576;DHT22;43412;-33.800;150.804;2023-04-01T04:25:28;20.60;99.90
57576;DHT22;43412;-33.800;150.804;2023-04-01T04:27:56;20.70;99.90
57576;DHT22;43412;-33.800;150.804;2023-04-01T04:30:23;20.80;99.90
57576;DHT22;43412;-33.800;150.804;2023-04-01T04:32:50;20.90;99.90
57576;DHT22;43412;-33.800;150.804;2023-04-01T04:35:18;21.10;99.90
57576;DHT22;43412;-33.800;150.804;2023-04-01T04:37:45;21.10;99.90
57576;DHT22;43412;-33.800;150.804;2023-04-01T04:40:12;21.10;99.90
57576;DHT22;43412;-33.800;150.804;2023-04-01T04:42:40;21.20;99.90
57576;DHT22;43412;-33.800;150.804;2023-04-01T04:45:07;21.40;99.90
57576;DHT22;43412;-33.800;150.804;2023-04-01T04:47:34;21.60;99.90
57576;DHT22;43412;-33.800;150.804;2023-04-01T04:50:02;21.70;99.90
57576;DHT22;43412;-33.800;150.804;2023-04-01T04:52:29;21.70;99.90
57576;DHT22;43412;-33.800;150.804;2023-04-01T04:54:56;21.70;99.90
57576;DHT22;43412;-33.800;150.804;2023-04-01T04:57:24;21.70;99.90
57576;DHT22;43412;-33.800;150.804;2023-04-01T04:59:51;21.70;99.90
57576;DHT22;43412;-33.800;150.804;2023-04-01T05:02:18;21.80;99.90
57576;DHT22;43412;-33.800;150.804;2023-04-01T05:04:46;21.80;99.90
57576;DHT22;43412;-33.800;150.804;2023-04-01T05:07:13;21.80;99.90
57576;DHT22;43412;-33.800;150.804;2023-04-01T05:09:41;21.90;99.90
57576;DHT22;43412;-33.800;150.804;2023-04-01T05:12:08;22.00;99.90
57576;DHT22;43412;-33.800;150.804;2023-04-01T05:14:35;22.00;99.90
57576;DHT22;43412;-33.800;150.804;2023-04-01T05:17:03;22.00;99.90
57576;DHT22;43412;-33.800;150.804;2023-04-01T05:19:30;21.90;99.90
57576;DHT22;43412;-33.800;150.804;2023-04-01T05:21:57;21.80;99.90
57576;DHT22;43412;-33.800;150.804;2023-04-01T05:24:25;21.60;99.90
57576;DHT22;43412;-33.800;150.804;2023-04-01T05:26:52;21.50;99.90
57576;DHT22;43412;-33.800;150.804;2023-04-01T05:29:19;21.40;99.90
57576;DHT22;43412;-33.800;150.804;2023-04-01T05:31:47;21.40;99.90
57576;DHT22;43412;-33.800;150.804;2023-04-01T05:34:14;21.30;99.90
57576;DHT22;43412;-33.800;150.804;2023-04-01T05:36:43;21.30;99.90
57576;DHT22;43412;-33.800;150.804;2023-04-01T05:39:10;21.30;99.90
57576;DHT22;43412;-33.800;150.804;2023-04-01T05:41:38;21.30;99.90
57576;DHT22;43412;-33.800;150.804;2023-04-01T05:44:06;21.10;99.90
57576;DHT22;43412;-33.800;150.804;2023-04-01T05:46:34;21.30;99.90
57576;DHT22;43412;-33.800;150.804;2023-04-01T05:49:01;21.40;99.90
57576;DHT22;43412;-33.800;150.804;2023-04-01T05:51:28;21.40;99.90
57576;DHT22;43412;-33.800;150.804;2023-04-01T05:53:57;21.30;99.90
57576;DHT22;43412;-33.800;150.804;2023-04-01T05:56:25;21.30;99.90
57576;DHT22;43412;-33.800;150.804;2023-04-01T05:58:54;21.10;99.90
57576;DHT22;43412;-33.800;150.804;2023-04-01T06:01:21;21.00;99.90
57576;DHT22;43412;-33.800;150.804;2023-04-01T06:03:48;21.00;99.90
57576;DHT22;43412;-33.800;150.804;2023-04-01T06:06:27;20.90;99.90
57576;DHT22;43412;-33.800;150.804;2023-04-01T06:08:57;20.80;99.90
57576;DHT22;43412;-33.800;150.804;2023-04-01T06:11:42;20.60;99.90
57576;DHT22;43412;-33.800;150.804;2023-04-01T06:22:42;20.40;99.90
57576;DHT22;43412;-33.800;150.804;2023-04-01T06:45:09;20.20;99.90
57576;DHT22;43412;-33.800;150.804;2023-04-01T06:54:31;20.00;99.90
57576;DHT22;43412;-33.800;150.804;2023-04-01T06:56:33;20.00;99.90
57576;DHT22;43412;-33.800;150.804;2023-04-01T06:59:05;20.00;99.90
57576;DHT22;43412;-33.800;150.804;2023-04-01T07:01:46;19.90;99.90
57576;DHT22;43412;-33.800;150.804;2023-04-01T07:04:28;19.80;99.90
57576;DHT22;43412;-33.800;150.804;2023-04-01T07:09:43;19.80;99.90
57576;DHT22;43412;-33.800;150.804;2023-04-01T07:12:26;19.80;99.90
57576;DHT22;43412;-33.800;150.804;2023-04-01T07:14:57;19.80;99.90
57576;DHT22;43412;-33.800;150.804;2023-04-01T07:17:28;19.80;99.90
57576;DHT22;43412;-33.800;150.804;2023-04-01T07:20:49;19.80;99.90
57576;DHT22;43412;-33.800;150.804;2023-04-01T07:23:16;19.70;99.90
57576;DHT22;43412;-33.800;150.804;2023-04-01T07:25:44;19.60;99.90
57576;DHT22;43412;-33.800;150.804;2023-04-01T07:28:15;19.50;99.90
57576;DHT22;43412;-33.800;150.804;2023-04-01T07:36:33;19.40;99.90
57576;DHT22;43412;-33.800;150.804;2023-04-01T07:42:08;19.40;99.90
57576;DHT22;43412;-33.800;150.804;2023-04-01T07:52:23;19.10;99.90
57576;DHT22;43412;-33.800;150.804;2023-04-01T07:58:01;19.00;99.90
57576;DHT22;43412;-33.800;150.804;2023-04-01T08:20:36;18.80;99.90
57576;DHT22;43412;-33.800;150.804;2023-04-01T08:29:12;18.70;99.90
57576;DHT22;43412;-33.800;150.804;2023-04-01T08:34:39;18.70;99.90
57576;DHT22;43412;-33.800;150.804;2023-04-01T08:37:21;18.70;99.90
57576;DHT22;43412;-33.800;150.804;2023-04-01T08:40:01;18.70;99.90
57576;DHT22;43412;-33.800;150.804;2023-04-01T08:48:23;18.60;99.90
57576;DHT22;43412;-33.800;150.804;2023-04-01T08:51:18;18.60;99.90
57576;DHT22;43412;-33.800;150.804;2023-04-01T09:11:11;18.30;99.90
57576;DHT22;43412;-33.800;150.804;2023-04-01T09:19:40;18.10;99.90
57576;DHT22;43412;-33.800;150.804;2023-04-01T09:22:19;18.00;99.90
57576;DHT22;43412;-33.800;150.804;2023-04-01T09:37:19;17.80;99.90
57576;DHT22;43412;-33.800;150.804;2023-04-01T09:53:42;17.80;99.90
57576;DHT22;43412;-33.800;150.804;2023-04-01T10:13:14;17.90;99.90
57576;DHT22;43412;-33.800;150.804;2023-04-01T10:33:08;17.70;99.90
57576;DHT22;43412;-33.800;150.804;2023-04-01T10:59:24;17.50;99.90
57576;DHT22;43412;-33.800;150.804;2023-04-01T11:05:05;17.30;99.90
57576;DHT22;43412;-33.800;150.804;2023-04-01T11:28:25;16.80;99.90
57576;DHT22;43412;-33.800;150.804;2023-04-01T11:36:25;16.70;99.90
57576;DHT22;43412;-33.800;150.804;2023-04-01T11:44:30;16.60;99.90
57576;DHT22;43412;-33.800;150.804;2023-04-01T11:47:36;16.50;99.90
57576;DHT22;43412;-33.800;150.804;2023-04-01T11:53:34;16.40;99.90
57576;DHT22;43412;-33.800;150.804;2023-04-01T12:06:56;16.30;99.90
57576;DHT22;43412;-33.800;150.804;2023-04-01T12:09:34;16.30;99.90
57576;DHT22;43412;-33.800;150.804;2023-04-01T12:17:56;16.20;99.90
57576;DHT22;43412;-33.800;150.804;2023-04-01T12:23:14;16.20;99.90
57576;DHT22;43412;-33.800;150.804;2023-04-01T12:25:58;16.20;99.90
57576;DHT22;43412;-33.800;150.804;2023-04-01T12:31:15;16.20;99.90
57576;DHT22;43412;-33.800;150.804;2023-04-01T12:37:00;16.30;99.90
57576;DHT22;43412;-33.800;150.804;2023-04-01T12:45:33;16.20;99.90
57576;DHT22;43412;-33.800;150.804;2023-04-01T12:53:48;16.20;99.90
57576;DHT22;43412;-33.800;150.804;2023-04-01T12:56:41;16.20;99.90
57576;DHT22;43412;-33.800;150.804;2023-04-01T13:07:57;16.20;99.90
57576;DHT22;43412;-33.800;150.804;2023-04-01T13:10:38;16.20;99.90
57576;DHT22;43412;-33.800;150.804;2023-04-01T13:13:28;16.20;99.90
57576;DHT22;43412;-33.800;150.804;2023-04-01T13:24:40;16.10;99.90
57576;DHT22;43412;-33.800;150.804;2023-04-01T13:27:50;16.10;99.90
57576;DHT22;43412;-33.800;150.804;2023-04-01T13:30:36;16.00;99.90
57576;DHT22;43412;-33.800;150.804;2023-04-01T13:43:52;15.80;99.90
57576;DHT22;43412;-33.800;150.804;2023-04-01T13:52:22;15.70;99.90
57576;DHT22;43412;-33.800;150.804;2023-04-01T14:23:37;15.70;99.90
57576;DHT22;43412;-33.800;150.804;2023-04-01T14:29:16;15.80;99.90
57576;DHT22;43412;-33.800;150.804;2023-04-01T14:31:54;15.80;99.90
57576;DHT22;43412;-33.800;150.804;2023-04-01T14:37:19;15.80;99.90
57576;DHT22;43412;-33.800;150.804;2023-04-01T14:50:51;15.60;99.90
57576;DHT22;43412;-33.800;150.804;2023-04-01T14:53:44;15.50;99.90
57576;DHT22;43412;-33.800;150.804;2023-04-01T14:56:42;15.50;99.90
57576;DHT22;43412;-33.800;150.804;2023-04-01T15:01:50;15.50;99.90
57576;DHT22;43412;-33.800;150.804;2023-04-01T15:04:37;15.50;99.90
57576;DHT22;43412;-33.800;150.804;2023-04-01T15:17:43;15.50;99.90
57576;DHT22;43412;-33.800;150.804;2023-04-01T15:20:28;15.50;99.90
57576;DHT22;43412;-33.800;150.804;2023-04-01T15:23:25;15.50;99.90
57576;DHT22;43412;-33.800;150.804;2023-04-01T15:26:13;15.40;99.90
57576;DHT22;43412;-33.800;150.804;2023-04-01T15:29:06;15.40;99.90
57576;DHT22;43412;-33.800;150.804;2023-04-01T15:37:30;15.20;99.90
57576;DHT22;43412;-33.800;150.804;2023-04-01T15:54:12;15.30;99.90
57576;DHT22;43412;-33.800;150.804;2023-04-01T15:56:55;15.40;99.90
57576;DHT22;43412;-33.800;150.804;2023-04-01T16:05:26;15.50;99.90
57576;DHT22;43412;-33.800;150.804;2023-04-01T16:17:18;15.70;99.90
57576;DHT22;43412;-33.800;150.804;2023-04-01T16:23:02;15.80;99.90
57576;DHT22;43412;-33.800;150.804;2023-04-01T16:25:51;15.80;99.90
57576;DHT22;43412;-33.800;150.804;2023-04-01T16:35:16;15.70;99.90
57576;DHT22;43412;-33.800;150.804;2023-04-01T16:46:12;15.70;99.90
57576;DHT22;43412;-33.800;150.804;2023-04-01T16:48:52;15.70;99.90
57576;DHT22;43412;-33.800;150.804;2023-04-01T16:51:23;15.60;99.90
57576;DHT22;43412;-33.800;150.804;2023-04-01T16:54:03;15.60;99.90
57576;DHT22;43412;-33.800;150.804;2023-04-01T16:56:55;15.50;99.90
57576;DHT22;43412;-33.800;150.804;2023-04-01T16:59:36;15.50;99.90
57576;DHT22;43412;-33.800;150.804;2023-04-01T17:02:18;15.60;99.90
57576;DHT22;43412;-33.800;150.804;2023-04-01T17:05:05;15.70;99.90
57576;DHT22;43412;-33.800;150.804;2023-04-01T17:11:21;15.70;99.90
57576;DHT22;43412;-33.800;150.804;2023-04-01T17:19:48;15.50;99.90
57576;DHT22;43412;-33.800;150.804;2023-04-01T17:23:18;15.40;99.90
57576;DHT22;43412;-33.800;150.804;2023-04-01T17:33:38;15.40;99.90
57576;DHT22;43412;-33.800;150.804;2023-04-01T17:42:11;15.40;99.90
57576;DHT22;43412;-33.800;150.804;2023-04-01T17:45:04;15.40;99.90
57576;DHT22;43412;-33.800;150.804;2023-04-01T18:21:55;15.40;99.90
57576;DHT22;43412;-33.800;150.804;2023-04-01T18:27:15;15.30;99.90
57576;DHT22;43412;-33.800;150.804;2023-04-01T18:50:18;15.20;99.90
57576;DHT22;43412;-33.800;150.804;2023-04-01T18:52:39;15.20;99.90
57576;DHT22;43412;-33.800;150.804;2023-04-01T18:57:53;15.20;99.90
57576;DHT22;43412;-33.800;150.804;2023-04-01T19:00:36;15.20;99.90
57576;DHT22;43412;-33.800;150.804;2023-04-01T19:05:44;15.20;99.90
57576;DHT22;43412;-33.800;150.804;2023-04-01T19:13:43;15.10;99.90
57576;DHT22;43412;-33.800;150.804;2023-04-01T19:28:01;15.10;99.90
57576;DHT22;43412;-33.800;150.804;2023-04-01T19:38:41;15.20;99.90
57576;DHT22;43412;-33.800;150.804;2023-04-01T19:47:14;15.20;99.90
57576;DHT22;43412;-33.800;150.804;2023-04-01T20:00:23;15.20;99.90
57576;DHT22;43412;-33.800;150.804;2023-04-01T20:06:18;15.20;99.90
57576;DHT22;43412;-33.800;150.804;2023-04-01T20:17:24;15.20;99.90
57576;DHT22;43412;-33.800;150.804;2023-04-01T20:26:11;15.20;99.90
57576;DHT22;43412;-33.800;150.804;2023-04-01T20:35:01;15.20;99.90
57576;DHT22;43412;-33.800;150.804;2023-04-01T20:40:49;15.20;99.90
57576;DHT22;43412;-33.800;150.804;2023-04-01T20:43:43;15.20;99.90
57576;DHT22;43412;-33.800;150.804;2023-04-01T20:46:39;15.20;99.90
57576;DHT22;43412;-33.800;150.804;2023-04-01T20:49:33;15.20;99.90
57576;DHT22;43412;-33.800;150.804;2023-04-01T21:08:23;15.20;99.90
57576;DHT22;43412;-33.800;150.804;2023-04-01T21:11:01;15.30;99.90
57576;DHT22;43412;-33.800;150.804;2023-04-01T21:16:49;15.30;99.90
57576;DHT22;43412;-33.800;150.804;2023-04-01T21:19:32;15.30;99.90
57576;DHT22;43412;-33.800;150.804;2023-04-01T21:22:11;15.40;99.90
57576;DHT22;43412;-33.800;150.804;2023-04-01T21:30:35;15.60;99.90
57576;DHT22;43412;-33.800;150.804;2023-04-01T21:44:36;15.70;99.90
57576;DHT22;43412;-33.800;150.804;2023-04-01T21:58:05;16.00;99.90
57576;DHT22;43412;-33.800;150.804;2023-04-01T22:04:01;16.00;99.90
57576;DHT22;43412;-33.800;150.804;2023-04-01T22:06:40;16.10;99.90
57576;DHT22;43412;-33.800;150.804;2023-04-01T22:12:01;16.10;99.90
57576;DHT22;43412;-33.800;150.804;2023-04-01T22:20:32;16.10;99.90
57576;DHT22;43412;-33.800;150.804;2023-04-01T22:23:32;16.10;99.90
57576;DHT22;43412;-33.800;150.804;2023-04-01T22:31:26;16.10;99.90
57576;DHT22;43412;-33.800;150.804;2023-04-01T22:34:17;16.10;99.90
57576;DHT22;43412;-33.800;150.804;2023-04-01T22:56:32;16.30;99.90
57576;DHT22;43412;-33.800;150.804;2023-04-01T22:59:31;16.30;99.90
57576;DHT22;43412;-33.800;150.804;2023-04-01T23:02:10;16.60;99.90
57576;DHT22;43412;-33.800;150.804;2023-04-01T23:04:42;17.00;99.90
57576;DHT22;43412;-33.800;150.804;2023-04-01T23:07:38;17.40;99.90
57576;DHT22;43412;-33.800;150.804;2023-04-01T23:10:48;17.80;99.90
57576;DHT22;43412;-33.800;150.804;2023-04-01T23:13:27;18.40;99.90
57576;DHT22;43412;-33.800;150.804;2023-04-01T23:15:57;18.80;99.90
57576;DHT22;43412;-33.800;150.804;2023-04-01T23:18:27;19.30;99.90
57576;DHT22;43412;-33.800;150.804;2023-04-01T23:21:11;19.70;99.90
57576;DHT22;43412;-33.800;150.804;2023-04-01T23:24:00;19.70;99.90
57576;DHT22;43412;-33.800;150.804;2023-04-01T23:29:06;19.40;99.90
57576;DHT22;43412;-33.800;150.804;2023-04-01T23:31:45;19.40;99.90
57576;DHT22;43412;-33.800;150.804;2023-04-01T23:36:51;19.10;99.90
57576;DHT22;43412;-33.800;150.804;2023-04-01T23:39:36;19.00;99.90
57576;DHT22;43412;-33.800;150.804;2023-04-01T23:42:18;19.00;99.90
57576;DHT22;43412;-33.800;150.804;2023-04-01T23:44:49;19.10;99.90
57576;DHT22;43412;-33.800;150.804;2023-04-01T23:47:44;19.30;99.90
57576;DHT22;43412;-33.800;150.804;2023-04-01T23:50:20;19.40;99.90
57576;DHT22;43412;-33.800;150.804;2023-04-01T23:55:35;19.50;99.90
